sensor_id;sensor_type;location;lat;lon;timestamp;P1;durP1;ratioP1;P2;durP2;ratioP2
61911;SDS011;49973;52.084;5.412;2023-08-30T00:01:48;9.13;;;5.53;;
61911;SDS011;49973;52.084;5.412;2023-08-30T00:04:18;11.60;;;6.80;;
61911;SDS011;49973;52.084;5.412;2023-08-30T00:06:47;11.50;;;6.63;;
61911;SDS011;49973;52.084;5.412;2023-08-30T00:09:16;10.80;;;6.90;;
61911;SDS011;49973;52.084;5.412;2023-08-30T00:11:45;13.60;;;6.10;;
61911;SDS011;49973;52.084;5.412;2023-08-30T00:14:13;10.93;;;6.17;;
61911;SDS011;49973;52.084;5.412;2023-08-30T00:16:42;9.13;;;6.13;;
61911;SDS011;49973;52.084;5.412;2023-08-30T00:19:11;8.27;;;5.70;;
61911;SDS011;49973;52.084;5.412;2023-08-30T00:21:43;9.33;;;5.80;;
61911;SDS011;49973;52.084;5.412;2023-08-30T00:24:11;9.60;;;5.47;;
61911;SDS011;49973;52.084;5.412;2023-08-30T00:26:40;8.63;;;5.93;;
61911;SDS011;49973;52.084;5.412;2023-08-30T00:29:09;8.33;;;5.80;;
61911;SDS011;49973;52.084;5.412;2023-08-30T00:31:37;10.53;;;5.73;;
61911;SDS011;49973;52.084;5.412;2023-08-30T00:34:06;12.70;;;5.60;;
61911;SDS011;49973;52.084;5.412;2023-08-30T00:36:34;8.47;;;5.83;;
61911;SDS011;49973;52.084;5.412;2023-08-30T00:39:04;10.57;;;6.83;;
61911;SDS011;49973;52.084;5.412;2023-08-30T00:41:33;10.27;;;6.43;;
61911;SDS011;49973;52.084;5.412;2023-08-30T00:44:02;10.07;;;5.97;;
61911;SDS011;49973;52.084;5.412;2023-08-30T00:46:31;10.90;;;6.53;;
61911;SDS011;49973;52.084;5.412;2023-08-30T00:49:01;9.67;;;7.07;;
61911;SDS011;49973;52.084;5.412;2023-08-30T00:51:31;9.90;;;6.40;;
61911;SDS011;49973;52.084;5.412;2023-08-30T00:54:00;11.97;;;6.17;;
61911;SDS011;49973;52.084;5.412;2023-08-30T00:56:30;9.70;;;6.50;;
61911;SDS011;49973;52.084;5.412;2023-08-30T00:59:00;17.20;;;7.33;;
61911;SDS011;49973;52.084;5.412;2023-08-30T01:01:29;14.03;;;6.70;;
61911;SDS011;49973;52.084;5.412;2023-08-30T01:03:59;11.17;;;6.20;;
61911;SDS011;49973;52.084;5.412;2023-08-30T01:06:28;7.73;;;5.67;;
61911;SDS011;49973;52.084;5.412;2023-08-30T01:08:58;9.40;;;6.23;;
61911;SDS011;49973;52.084;5.412;2023-08-30T01:11:35;10.27;;;6.10;;
61911;SDS011;49973;52.084;5.412;2023-08-30T01:14:09;9.87;;;5.73;;
61911;SDS011;49973;52.084;5.412;2023-08-30T01:16:51;12.40;;;6.40;;
61911;SDS011;49973;52.084;5.412;2023-08-30T01:19:25;7.97;;;5.07;;
61911;SDS011;49973;52.084;5.412;2023-08-30T01:22:05;10.50;;;5.53;;
61911;SDS011;49973;52.084;5.412;2023-08-30T01:24:44;9.73;;;5.43;;
61911;SDS011;49973;52.084;5.412;2023-08-30T01:27:21;10.30;;;6.50;;
61911;SDS011;49973;52.084;5.412;2023-08-30T01:29:52;10.00;;;5.50;;
61911;SDS011;49973;52.084;5.412;2023-08-30T01:32:25;8.87;;;5.60;;
61911;SDS011;49973;52.084;5.412;2023-08-30T01:34:55;12.40;;;5.70;;
61911;SDS011;49973;52.084;5.412;2023-08-30T01:37:25;9.07;;;5.63;;
61911;SDS011;49973;52.084;5.412;2023-08-30T01:39:54;10.00;;;5.20;;
61911;SDS011;49973;52.084;5.412;2023-08-30T01:42:26;9.77;;;6.40;;
61911;SDS011;49973;52.084;5.412;2023-08-30T01:44:55;8.80;;;5.97;;
61911;SDS011;49973;52.084;5.412;2023-08-30T01:47:27;9.77;;;5.67;;
61911;SDS011;49973;52.084;5.412;2023-08-30T01:49:57;8.13;;;5.30;;
61911;SDS011;49973;52.084;5.412;2023-08-30T01:52:26;13.13;;;5.80;;
61911;SDS011;49973;52.084;5.412;2023-08-30T01:54:55;9.53;;;5.37;;
61911;SDS011;49973;52.084;5.412;2023-08-30T01:57:27;10.57;;;5.73;;
61911;SDS011;49973;52.084;5.412;2023-08-30T01:59:56;8.97;;;5.97;;
61911;SDS011;49973;52.084;5.412;2023-08-30T02:02:28;8.40;;;5.97;;
61911;SDS011;49973;52.084;5.412;2023-08-30T02:04:57;8.03;;;5.27;;
61911;SDS011;49973;52.084;5.412;2023-08-30T02:07:28;9.30;;;4.47;;
61911;SDS011;49973;52.084;5.412;2023-08-30T02:10:02;10.03;;;5.23;;
61911;SDS011;49973;52.084;5.412;2023-08-30T02:12:37;10.67;;;5.77;;
61911;SDS011;49973;52.084;5.412;2023-08-30T02:15:10;9.80;;;6.00;;
61911;SDS011;49973;52.084;5.412;2023-08-30T02:17:41;12.23;;;5.60;;
61911;SDS011;49973;52.084;5.412;2023-08-30T02:20:10;10.97;;;5.77;;
61911;SDS011;49973;52.084;5.412;2023-08-30T02:22:40;12.17;;;6.17;;
61911;SDS011;49973;52.084;5.412;2023-08-30T02:25:09;9.50;;;5.90;;
61911;SDS011;49973;52.084;5.412;2023-08-30T02:27:39;12.40;;;5.67;;
61911;SDS011;49973;52.084;5.412;2023-08-30T02:30:08;10.83;;;5.93;;
61911;SDS011;49973;52.084;5.412;2023-08-30T02:32:37;11.47;;;5.93;;
61911;SDS011;49973;52.084;5.412;2023-08-30T02:35:06;11.37;;;6.63;;
61911;SDS011;49973;52.084;5.412;2023-08-30T02:37:37;10.37;;;7.10;;
61911;SDS011;49973;52.084;5.412;2023-08-30T02:40:07;9.63;;;6.27;;
61911;SDS011;49973;52.084;5.412;2023-08-30T02:42:38;10.50;;;6.47;;
61911;SDS011;49973;52.084;5.412;2023-08-30T02:45:08;14.77;;;6.97;;
61911;SDS011;49973;52.084;5.412;2023-08-30T02:47:37;12.30;;;6.70;;
61911;SDS011;49973;52.084;5.412;2023-08-30T02:50:06;16.47;;;6.47;;
61911;SDS011;49973;52.084;5.412;2023-08-30T02:52:35;8.00;;;5.90;;
61911;SDS011;49973;52.084;5.412;2023-08-30T02:55:03;8.73;;;6.07;;
61911;SDS011;49973;52.084;5.412;2023-08-30T02:57:33;11.57;;;6.73;;
61911;SDS011;49973;52.084;5.412;2023-08-30T03:00:03;11.83;;;6.83;;
61911;SDS011;49973;52.084;5.412;2023-08-30T03:02:33;10.67;;;6.57;;
61911;SDS011;49973;52.084;5.412;2023-08-30T03:05:03;12.40;;;6.83;;
61911;SDS011;49973;52.084;5.412;2023-08-30T03:07:32;12.63;;;7.30;;
61911;SDS011;49973;52.084;5.412;2023-08-30T03:10:01;16.57;;;7.23;;
61911;SDS011;49973;52.084;5.412;2023-08-30T03:12:31;11.77;;;6.70;;
61911;SDS011;49973;52.084;5.412;2023-08-30T03:14:59;10.77;;;7.03;;
61911;SDS011;49973;52.084;5.412;2023-08-30T03:17:30;11.63;;;6.77;;
61911;SDS011;49973;52.084;5.412;2023-08-30T03:19:59;12.30;;;6.93;;
61911;SDS011;49973;52.084;5.412;2023-08-30T03:22:30;12.43;;;7.40;;
61911;SDS011;49973;52.084;5.412;2023-08-30T03:24:59;13.93;;;7.53;;
61911;SDS011;49973;52.084;5.412;2023-08-30T03:27:30;10.87;;;6.50;;
61911;SDS011;49973;52.084;5.412;2023-08-30T03:30:02;11.63;;;6.83;;
61911;SDS011;49973;52.084;5.412;2023-08-30T03:32:34;14.87;;;6.53;;
61911;SDS011;49973;52.084;5.412;2023-08-30T03:35:04;12.20;;;6.77;;
61911;SDS011;49973;52.084;5.412;2023-08-30T03:37:33;13.00;;;7.03;;
61911;SDS011;49973;52.084;5.412;2023-08-30T03:40:02;14.70;;;7.20;;
61911;SDS011;49973;52.084;5.412;2023-08-30T03:42:31;12.63;;;7.10;;
61911;SDS011;49973;52.084;5.412;2023-08-30T03:45:02;10.47;;;5.70;;
61911;SDS011;49973;52.084;5.412;2023-08-30T03:47:33;10.37;;;6.43;;
61911;SDS011;49973;52.084;5.412;2023-08-30T03:50:02;9.43;;;6.60;;
61911;SDS011;49973;52.084;5.412;2023-08-30T03:52:33;17.90;;;7.70;;
61911;SDS011;49973;52.084;5.412;2023-08-30T03:55:02;11.87;;;6.53;;
61911;SDS011;49973;52.084;5.412;2023-08-30T03:57:31;12.27;;;8.10;;
61911;SDS011;49973;52.084;5.412;2023-08-30T03:59:59;15.03;;;7.63;;
61911;SDS011;49973;52.084;5.412;2023-08-30T04:02:28;14.00;;;7.03;;
61911;SDS011;49973;52.084;5.412;2023-08-30T04:04:58;16.63;;;6.87;;
61911;SDS011;49973;52.084;5.412;2023-08-30T04:07:27;13.97;;;7.70;;
61911;SDS011;49973;52.084;5.412;2023-08-30T04:09:55;11.80;;;6.93;;
61911;SDS011;49973;52.084;5.412;2023-08-30T04:12:25;12.60;;;7.37;;
61911;SDS011;49973;52.084;5.412;2023-08-30T04:14:54;12.40;;;7.30;;
61911;SDS011;49973;52.084;5.412;2023-08-30T04:17:23;13.67;;;7.10;;
61911;SDS011;49973;52.084;5.412;2023-08-30T04:19:53;12.70;;;7.27;;
61911;SDS011;49973;52.084;5.412;2023-08-30T04:22:23;12.07;;;6.93;;
61911;SDS011;49973;52.084;5.412;2023-08-30T04:24:51;16.47;;;6.97;;
61911;SDS011;49973;52.084;5.412;2023-08-30T04:27:20;13.97;;;7.63;;
61911;SDS011;49973;52.084;5.412;2023-08-30T04:29:49;15.53;;;8.37;;
61911;SDS011;49973;52.084;5.412;2023-08-30T04:32:17;14.57;;;7.43;;
61911;SDS011;49973;52.084;5.412;2023-08-30T04:34:46;10.07;;;6.30;;
61911;SDS011;49973;52.084;5.412;2023-08-30T04:37:15;14.83;;;7.20;;
61911;SDS011;49973;52.084;5.412;2023-08-30T04:39:48;16.47;;;6.93;;
61911;SDS011;49973;52.084;5.412;2023-08-30T04:42:16;14.33;;;7.27;;
61911;SDS011;49973;52.084;5.412;2023-08-30T04:44:45;10.37;;;6.33;;
61911;SDS011;49973;52.084;5.412;2023-08-30T04:47:14;17.43;;;6.53;;
61911;SDS011;49973;52.084;5.412;2023-08-30T04:49:42;9.50;;;6.33;;
61911;SDS011;49973;52.084;5.412;2023-08-30T04:52:11;15.10;;;7.13;;
61911;SDS011;49973;52.084;5.412;2023-08-30T04:54:40;11.13;;;6.57;;
61911;SDS011;49973;52.084;5.412;2023-08-30T04:57:11;9.00;;;6.17;;
61911;SDS011;49973;52.084;5.412;2023-08-30T04:59:41;12.73;;;7.47;;
61911;SDS011;49973;52.084;5.412;2023-08-30T05:02:11;9.63;;;6.17;;
61911;SDS011;49973;52.084;5.412;2023-08-30T05:05:01;12.77;;;7.43;;
61911;SDS011;49973;52.084;5.412;2023-08-30T05:07:30;12.67;;;7.33;;
61911;SDS011;49973;52.084;5.412;2023-08-30T05:09:58;15.60;;;7.07;;
61911;SDS011;49973;52.084;5.412;2023-08-30T05:12:28;16.17;;;8.43;;
61911;SDS011;49973;52.084;5.412;2023-08-30T05:14:57;20.77;;;7.90;;
61911;SDS011;49973;52.084;5.412;2023-08-30T05:17:27;20.30;;;7.53;;
61911;SDS011;49973;52.084;5.412;2023-08-30T05:19:57;13.10;;;7.07;;
61911;SDS011;49973;52.084;5.412;2023-08-30T05:22:26;11.30;;;7.30;;
61911;SDS011;49973;52.084;5.412;2023-08-30T05:24:54;12.93;;;7.27;;
61911;SDS011;49973;52.084;5.412;2023-08-30T05:27:23;12.60;;;7.60;;
61911;SDS011;49973;52.084;5.412;2023-08-30T05:29:54;11.40;;;7.20;;
61911;SDS011;49973;52.084;5.412;2023-08-30T05:32:23;10.70;;;7.13;;
61911;SDS011;49973;52.084;5.412;2023-08-30T05:34:52;11.80;;;7.17;;
61911;SDS011;49973;52.084;5.412;2023-08-30T05:37:28;19.50;;;8.30;;
61911;SDS011;49973;52.084;5.412;2023-08-30T05:40:23;11.70;;;7.37;;
61911;SDS011;49973;52.084;5.412;2023-08-30T05:42:51;10.97;;;7.40;;
61911;SDS011;49973;52.084;5.412;2023-08-30T05:45:23;11.10;;;7.20;;
61911;SDS011;49973;52.084;5.412;2023-08-30T05:47:52;14.67;;;8.63;;
61911;SDS011;49973;52.084;5.412;2023-08-30T05:50:21;17.20;;;7.97;;
61911;SDS011;49973;52.084;5.412;2023-08-30T05:52:50;13.57;;;7.10;;
61911;SDS011;49973;52.084;5.412;2023-08-30T05:55:18;13.93;;;7.07;;
61911;SDS011;49973;52.084;5.412;2023-08-30T05:57:47;14.67;;;7.07;;
61911;SDS011;49973;52.084;5.412;2023-08-30T06:00:16;18.10;;;8.00;;
61911;SDS011;49973;52.084;5.412;2023-08-30T06:02:46;14.30;;;6.53;;
61911;SDS011;49973;52.084;5.412;2023-08-30T06:05:15;13.67;;;7.63;;
61911;SDS011;49973;52.084;5.412;2023-08-30T06:07:44;14.03;;;8.43;;
61911;SDS011;49973;52.084;5.412;2023-08-30T06:10:12;15.93;;;7.80;;
61911;SDS011;49973;52.084;5.412;2023-08-30T06:12:41;14.23;;;7.87;;
61911;SDS011;49973;52.084;5.412;2023-08-30T06:15:10;10.20;;;7.17;;
61911;SDS011;49973;52.084;5.412;2023-08-30T06:17:38;14.03;;;7.93;;
61911;SDS011;49973;52.084;5.412;2023-08-30T06:20:09;11.80;;;7.37;;
61911;SDS011;49973;52.084;5.412;2023-08-30T06:22:38;12.17;;;7.20;;
61911;SDS011;49973;52.084;5.412;2023-08-30T06:25:12;11.77;;;7.10;;
61911;SDS011;49973;52.084;5.412;2023-08-30T06:27:41;15.50;;;8.20;;
61911;SDS011;49973;52.084;5.412;2023-08-30T06:30:10;16.47;;;7.87;;
61911;SDS011;49973;52.084;5.412;2023-08-30T06:32:40;12.63;;;7.47;;
61911;SDS011;49973;52.084;5.412;2023-08-30T06:35:10;15.70;;;8.20;;
61911;SDS011;49973;52.084;5.412;2023-08-30T06:37:39;12.53;;;8.20;;
61911;SDS011;49973;52.084;5.412;2023-08-30T06:40:07;13.40;;;7.87;;
61911;SDS011;49973;52.084;5.412;2023-08-30T06:42:37;14.07;;;8.20;;
61911;SDS011;49973;52.084;5.412;2023-08-30T06:45:06;14.13;;;7.23;;
61911;SDS011;49973;52.084;5.412;2023-08-30T06:47:35;15.73;;;8.17;;
61911;SDS011;49973;52.084;5.412;2023-08-30T06:50:04;14.53;;;8.03;;
61911;SDS011;49973;52.084;5.412;2023-08-30T06:52:37;15.67;;;8.53;;
61911;SDS011;49973;52.084;5.412;2023-08-30T06:55:06;15.30;;;7.23;;
61911;SDS011;49973;52.084;5.412;2023-08-30T06:57:36;12.67;;;8.13;;
61911;SDS011;49973;52.084;5.412;2023-08-30T07:00:05;14.87;;;7.57;;
61911;SDS011;49973;52.084;5.412;2023-08-30T07:02:36;15.30;;;7.60;;
61911;SDS011;49973;52.084;5.412;2023-08-30T07:05:06;13.90;;;8.57;;
61911;SDS011;49973;52.084;5.412;2023-08-30T07:07:35;23.60;;;8.60;;
61911;SDS011;49973;52.084;5.412;2023-08-30T07:10:05;14.97;;;8.03;;
61911;SDS011;49973;52.084;5.412;2023-08-30T07:12:35;12.07;;;7.63;;
61911;SDS011;49973;52.084;5.412;2023-08-30T07:15:03;19.00;;;8.90;;
61911;SDS011;49973;52.084;5.412;2023-08-30T07:17:33;22.57;;;8.47;;
61911;SDS011;49973;52.084;5.412;2023-08-30T07:20:19;16.77;;;8.27;;
61911;SDS011;49973;52.084;5.412;2023-08-30T07:22:48;23.43;;;9.33;;
61911;SDS011;49973;52.084;5.412;2023-08-30T07:25:18;14.63;;;9.13;;
61911;SDS011;49973;52.084;5.412;2023-08-30T07:27:47;14.37;;;8.37;;
61911;SDS011;49973;52.084;5.412;2023-08-30T07:30:15;23.83;;;8.67;;
61911;SDS011;49973;52.084;5.412;2023-08-30T07:32:44;20.27;;;8.20;;
61911;SDS011;49973;52.084;5.412;2023-08-30T07:35:13;23.90;;;8.83;;
61911;SDS011;49973;52.084;5.412;2023-08-30T07:37:41;19.07;;;8.43;;
61911;SDS011;49973;52.084;5.412;2023-08-30T07:40:10;18.50;;;8.50;;
61911;SDS011;49973;52.084;5.412;2023-08-30T07:42:40;17.93;;;7.93;;
61911;SDS011;49973;52.084;5.412;2023-08-30T07:45:09;24.63;;;8.87;;
61911;SDS011;49973;52.084;5.412;2023-08-30T07:47:38;17.47;;;9.10;;
61911;SDS011;49973;52.084;5.412;2023-08-30T07:50:07;15.07;;;8.33;;
61911;SDS011;49973;52.084;5.412;2023-08-30T07:52:36;17.13;;;8.37;;
61911;SDS011;49973;52.084;5.412;2023-08-30T07:55:12;18.57;;;8.43;;
61911;SDS011;49973;52.084;5.412;2023-08-30T07:57:43;13.93;;;8.73;;
61911;SDS011;49973;52.084;5.412;2023-08-30T08:00:12;16.17;;;8.33;;
61911;SDS011;49973;52.084;5.412;2023-08-30T08:02:44;16.77;;;8.47;;
61911;SDS011;49973;52.084;5.412;2023-08-30T08:05:12;15.10;;;8.03;;
61911;SDS011;49973;52.084;5.412;2023-08-30T08:07:42;14.83;;;8.70;;
61911;SDS011;49973;52.084;5.412;2023-08-30T08:10:11;19.13;;;7.87;;
61911;SDS011;49973;52.084;5.412;2023-08-30T08:12:40;14.47;;;7.10;;
61911;SDS011;49973;52.084;5.412;2023-08-30T08:15:10;16.80;;;7.70;;
61911;SDS011;49973;52.084;5.412;2023-08-30T08:17:39;14.37;;;7.83;;
61911;SDS011;49973;52.084;5.412;2023-08-30T08:20:07;16.40;;;8.13;;
61911;SDS011;49973;52.084;5.412;2023-08-30T08:22:36;20.80;;;7.67;;
61911;SDS011;49973;52.084;5.412;2023-08-30T08:25:05;16.07;;;7.43;;
61911;SDS011;49973;52.084;5.412;2023-08-30T08:27:36;11.23;;;6.70;;
61911;SDS011;49973;52.084;5.412;2023-08-30T08:30:06;17.23;;;7.33;;
61911;SDS011;49973;52.084;5.412;2023-08-30T08:32:37;15.17;;;7.43;;
61911;SDS011;49973;52.084;5.412;2023-08-30T08:35:06;17.23;;;7.67;;
61911;SDS011;49973;52.084;5.412;2023-08-30T08:37:35;12.80;;;6.93;;
61911;SDS011;49973;52.084;5.412;2023-08-30T08:40:04;12.07;;;7.47;;
61911;SDS011;49973;52.084;5.412;2023-08-30T08:42:36;12.67;;;6.37;;
61911;SDS011;49973;52.084;5.412;2023-08-30T08:45:05;13.17;;;6.43;;
61911;SDS011;49973;52.084;5.412;2023-08-30T08:47:37;15.30;;;7.20;;
61911;SDS011;49973;52.084;5.412;2023-08-30T08:50:07;14.47;;;6.27;;
61911;SDS011;49973;52.084;5.412;2023-08-30T08:52:36;15.47;;;6.60;;
61911;SDS011;49973;52.084;5.412;2023-08-30T08:55:24;14.23;;;7.23;;
61911;SDS011;49973;52.084;5.412;2023-08-30T08:57:54;10.90;;;6.07;;
61911;SDS011;49973;52.084;5.412;2023-08-30T09:00:24;16.47;;;7.13;;
61911;SDS011;49973;52.084;5.412;2023-08-30T09:02:56;16.63;;;7.80;;
61911;SDS011;49973;52.084;5.412;2023-08-30T09:05:25;13.43;;;6.73;;
61911;SDS011;49973;52.084;5.412;2023-08-30T09:07:55;15.23;;;7.00;;
61911;SDS011;49973;52.084;5.412;2023-08-30T09:10:24;12.60;;;6.53;;
61911;SDS011;49973;52.084;5.412;2023-08-30T09:12:53;15.30;;;7.47;;
61911;SDS011;49973;52.084;5.412;2023-08-30T09:15:22;13.33;;;7.30;;
61911;SDS011;49973;52.084;5.412;2023-08-30T09:17:59;13.67;;;7.57;;
61911;SDS011;49973;52.084;5.412;2023-08-30T09:20:28;14.47;;;6.93;;
61911;SDS011;49973;52.084;5.412;2023-08-30T09:22:57;11.37;;;6.90;;
61911;SDS011;49973;52.084;5.412;2023-08-30T09:25:26;13.37;;;6.90;;
61911;SDS011;49973;52.084;5.412;2023-08-30T09:27:57;13.67;;;7.10;;
61911;SDS011;49973;52.084;5.412;2023-08-30T09:30:27;15.13;;;7.87;;
61911;SDS011;49973;52.084;5.412;2023-08-30T09:33:01;11.10;;;7.10;;
61911;SDS011;49973;52.084;5.412;2023-08-30T09:35:31;17.20;;;7.40;;
61911;SDS011;49973;52.084;5.412;2023-08-30T09:38:00;15.70;;;7.67;;
61911;SDS011;49973;52.084;5.412;2023-08-30T09:40:28;15.67;;;6.87;;
61911;SDS011;49973;52.084;5.412;2023-08-30T09:42:58;12.57;;;6.80;;
61911;SDS011;49973;52.084;5.412;2023-08-30T09:45:39;12.83;;;7.80;;
61911;SDS011;49973;52.084;5.412;2023-08-30T09:48:10;12.10;;;7.33;;
61911;SDS011;49973;52.084;5.412;2023-08-30T09:50:38;13.90;;;8.07;;
61911;SDS011;49973;52.084;5.412;2023-08-30T09:53:09;17.63;;;8.97;;
61911;SDS011;49973;52.084;5.412;2023-08-30T09:55:40;17.53;;;8.57;;
61911;SDS011;49973;52.084;5.412;2023-08-30T09:58:11;12.93;;;7.63;;
61911;SDS011;49973;52.084;5.412;2023-08-30T10:00:44;13.47;;;7.57;;
61911;SDS011;49973;52.084;5.412;2023-08-30T10:03:15;18.20;;;9.00;;
61911;SDS011;49973;52.084;5.412;2023-08-30T10:05:57;14.37;;;8.50;;
61911;SDS011;49973;52.084;5.412;2023-08-30T10:08:28;11.70;;;7.90;;
61911;SDS011;49973;52.084;5.412;2023-08-30T10:10:58;14.83;;;8.70;;
61911;SDS011;49973;52.084;5.412;2023-08-30T10:13:29;17.03;;;9.47;;
61911;SDS011;49973;52.084;5.412;2023-08-30T10:16:00;16.50;;;9.87;;
61911;SDS011;49973;52.084;5.412;2023-08-30T10:18:33;19.10;;;9.60;;
61911;SDS011;49973;52.084;5.412;2023-08-30T10:21:12;19.03;;;10.07;;
61911;SDS011;49973;52.084;5.412;2023-08-30T10:23:41;16.47;;;8.40;;
61911;SDS011;49973;52.084;5.412;2023-08-30T10:26:10;15.63;;;9.13;;
61911;SDS011;49973;52.084;5.412;2023-08-30T10:28:39;13.17;;;7.93;;
61911;SDS011;49973;52.084;5.412;2023-08-30T10:31:09;13.70;;;8.57;;
61911;SDS011;49973;52.084;5.412;2023-08-30T10:33:50;13.63;;;9.00;;
61911;SDS011;49973;52.084;5.412;2023-08-30T10:36:21;15.73;;;8.90;;
61911;SDS011;49973;52.084;5.412;2023-08-30T10:38:50;11.40;;;8.70;;
61911;SDS011;49973;52.084;5.412;2023-08-30T10:41:20;10.93;;;7.83;;
61911;SDS011;49973;52.084;5.412;2023-08-30T10:43:51;8.67;;;6.60;;
61911;SDS011;49973;52.084;5.412;2023-08-30T10:46:29;9.53;;;7.03;;
61911;SDS011;49973;52.084;5.412;2023-08-30T10:49:09;8.27;;;5.47;;
61911;SDS011;49973;52.084;5.412;2023-08-30T10:51:41;7.90;;;5.60;;
61911;SDS011;49973;52.084;5.412;2023-08-30T10:54:11;9.60;;;5.83;;
61911;SDS011;49973;52.084;5.412;2023-08-30T10:56:45;7.67;;;5.37;;
61911;SDS011;49973;52.084;5.412;2023-08-30T10:59:16;7.63;;;5.07;;
61911;SDS011;49973;52.084;5.412;2023-08-30T11:01:46;4.90;;;4.17;;
61911;SDS011;49973;52.084;5.412;2023-08-30T11:04:17;4.73;;;3.60;;
61911;SDS011;49973;52.084;5.412;2023-08-30T11:06:49;10.43;;;3.87;;
61911;SDS011;49973;52.084;5.412;2023-08-30T11:09:24;6.13;;;3.53;;
61911;SDS011;49973;52.084;5.412;2023-08-30T11:11:53;5.67;;;3.00;;
61911;SDS011;49973;52.084;5.412;2023-08-30T11:14:22;4.07;;;2.73;;
61911;SDS011;49973;52.084;5.412;2023-08-30T11:16:51;5.03;;;2.60;;
61911;SDS011;49973;52.084;5.412;2023-08-30T11:19:21;5.80;;;2.23;;
61911;SDS011;49973;52.084;5.412;2023-08-30T11:21:51;3.97;;;1.97;;
61911;SDS011;49973;52.084;5.412;2023-08-30T11:24:20;3.43;;;1.97;;
61911;SDS011;49973;52.084;5.412;2023-08-30T11:26:52;6.83;;;1.80;;
61911;SDS011;49973;52.084;5.412;2023-08-30T11:29:21;5.20;;;2.20;;
61911;SDS011;49973;52.084;5.412;2023-08-30T11:31:53;5.10;;;2.00;;
61911;SDS011;49973;52.084;5.412;2023-08-30T11:34:23;6.67;;;2.40;;
61911;SDS011;49973;52.084;5.412;2023-08-30T11:36:52;8.37;;;2.63;;
61911;SDS011;49973;52.084;5.412;2023-08-30T11:39:21;6.57;;;2.77;;
61911;SDS011;49973;52.084;5.412;2023-08-30T11:41:51;5.43;;;3.03;;
61911;SDS011;49973;52.084;5.412;2023-08-30T11:44:21;3.00;;;1.67;;
61911;SDS011;49973;52.084;5.412;2023-08-30T11:46:57;4.00;;;2.57;;
61911;SDS011;49973;52.084;5.412;2023-08-30T11:49:28;4.53;;;1.97;;
61911;SDS011;49973;52.084;5.412;2023-08-30T11:51:58;4.77;;;1.93;;
61911;SDS011;49973;52.084;5.412;2023-08-30T11:54:27;3.80;;;2.10;;
61911;SDS011;49973;52.084;5.412;2023-08-30T11:56:58;5.97;;;2.37;;
61911;SDS011;49973;52.084;5.412;2023-08-30T11:59:27;8.03;;;2.73;;
61911;SDS011;49973;52.084;5.412;2023-08-30T12:01:58;5.17;;;2.23;;
61911;SDS011;49973;52.084;5.412;2023-08-30T12:04:28;3.70;;;1.87;;
61911;SDS011;49973;52.084;5.412;2023-08-30T12:06:58;9.70;;;2.50;;
61911;SDS011;49973;52.084;5.412;2023-08-30T12:09:31;5.90;;;2.03;;
61911;SDS011;49973;52.084;5.412;2023-08-30T12:12:06;12.17;;;2.60;;
61911;SDS011;49973;52.084;5.412;2023-08-30T12:14:37;9.90;;;2.23;;
61911;SDS011;49973;52.084;5.412;2023-08-30T12:17:08;8.83;;;2.23;;
61911;SDS011;49973;52.084;5.412;2023-08-30T12:19:41;3.70;;;1.60;;
61911;SDS011;49973;52.084;5.412;2023-08-30T12:22:10;7.10;;;2.00;;
61911;SDS011;49973;52.084;5.412;2023-08-30T12:24:42;6.57;;;2.50;;
61911;SDS011;49973;52.084;5.412;2023-08-30T12:27:14;10.10;;;2.30;;
61911;SDS011;49973;52.084;5.412;2023-08-30T12:29:43;6.83;;;2.00;;
61911;SDS011;49973;52.084;5.412;2023-08-30T12:32:12;5.43;;;1.60;;
61911;SDS011;49973;52.084;5.412;2023-08-30T12:34:45;7.77;;;2.50;;
61911;SDS011;49973;52.084;5.412;2023-08-30T12:37:14;7.03;;;1.97;;
61911;SDS011;49973;52.084;5.412;2023-08-30T12:39:43;6.10;;;1.80;;
61911;SDS011;49973;52.084;5.412;2023-08-30T12:42:12;2.57;;;1.47;;
61911;SDS011;49973;52.084;5.412;2023-08-30T12:44:41;9.60;;;1.80;;
61911;SDS011;49973;52.084;5.412;2023-08-30T12:47:09;5.87;;;1.47;;
61911;SDS011;49973;52.084;5.412;2023-08-30T12:49:40;5.03;;;1.63;;
61911;SDS011;49973;52.084;5.412;2023-08-30T12:52:10;4.40;;;1.20;;
61911;SDS011;49973;52.084;5.412;2023-08-30T12:54:39;2.10;;;1.53;;
61911;SDS011;49973;52.084;5.412;2023-08-30T12:57:08;6.50;;;1.90;;
61911;SDS011;49973;52.084;5.412;2023-08-30T12:59:38;6.63;;;1.53;;
61911;SDS011;49973;52.084;5.412;2023-08-30T13:02:07;7.23;;;1.53;;
61911;SDS011;49973;52.084;5.412;2023-08-30T13:04:36;4.93;;;1.30;;
61911;SDS011;49973;52.084;5.412;2023-08-30T13:07:05;5.97;;;1.93;;
61911;SDS011;49973;52.084;5.412;2023-08-30T13:09:36;6.30;;;1.53;;
61911;SDS011;49973;52.084;5.412;2023-08-30T13:12:06;3.20;;;0.90;;
61911;SDS011;49973;52.084;5.412;2023-08-30T13:14:36;2.83;;;1.33;;
61911;SDS011;49973;52.084;5.412;2023-08-30T13:17:05;5.27;;;1.50;;
61911;SDS011;49973;52.084;5.412;2023-08-30T13:19:36;6.30;;;1.50;;
61911;SDS011;49973;52.084;5.412;2023-08-30T13:22:05;5.37;;;1.37;;
61911;SDS011;49973;52.084;5.412;2023-08-30T13:24:38;4.73;;;1.23;;
61911;SDS011;49973;52.084;5.412;2023-08-30T13:27:07;2.20;;;1.53;;
61911;SDS011;49973;52.084;5.412;2023-08-30T13:29:35;2.77;;;1.27;;
61911;SDS011;49973;52.084;5.412;2023-08-30T13:32:04;4.07;;;1.40;;
61911;SDS011;49973;52.084;5.412;2023-08-30T13:34:33;6.17;;;1.40;;
61911;SDS011;49973;52.084;5.412;2023-08-30T13:37:02;5.03;;;1.47;;
61911;SDS011;49973;52.084;5.412;2023-08-30T13:39:31;8.67;;;1.90;;
61911;SDS011;49973;52.084;5.412;2023-08-30T13:42:01;6.93;;;1.27;;
61911;SDS011;49973;52.084;5.412;2023-08-30T13:44:30;8.57;;;1.83;;
61911;SDS011;49973;52.084;5.412;2023-08-30T13:46:59;11.87;;;2.33;;
61911;SDS011;49973;52.084;5.412;2023-08-30T13:49:28;7.63;;;1.90;;
61911;SDS011;49973;52.084;5.412;2023-08-30T13:51:58;7.30;;;1.97;;
61911;SDS011;49973;52.084;5.412;2023-08-30T13:54:26;4.83;;;1.70;;
61911;SDS011;49973;52.084;5.412;2023-08-30T13:56:56;3.23;;;1.20;;
61911;SDS011;49973;52.084;5.412;2023-08-30T13:59:29;5.63;;;1.67;;
61911;SDS011;49973;52.084;5.412;2023-08-30T14:01:58;3.00;;;1.33;;
61911;SDS011;49973;52.084;5.412;2023-08-30T14:04:28;5.80;;;1.50;;
61911;SDS011;49973;52.084;5.412;2023-08-30T14:06:59;7.47;;;2.00;;
61911;SDS011;49973;52.084;5.412;2023-08-30T14:09:28;3.60;;;1.47;;
61911;SDS011;49973;52.084;5.412;2023-08-30T14:11:57;3.70;;;1.27;;
61911;SDS011;49973;52.084;5.412;2023-08-30T14:14:26;5.63;;;1.17;;
61911;SDS011;49973;52.084;5.412;2023-08-30T14:16:56;5.77;;;1.57;;
61911;SDS011;49973;52.084;5.412;2023-08-30T14:19:25;5.50;;;1.23;;
61911;SDS011;49973;52.084;5.412;2023-08-30T14:21:55;1.10;;;0.90;;
61911;SDS011;49973;52.084;5.412;2023-08-30T14:24:25;4.03;;;1.67;;
61911;SDS011;49973;52.084;5.412;2023-08-30T14:26:53;3.40;;;1.63;;
61911;SDS011;49973;52.084;5.412;2023-08-30T14:29:23;4.17;;;1.50;;
61911;SDS011;49973;52.084;5.412;2023-08-30T14:31:51;4.70;;;1.57;;
61911;SDS011;49973;52.084;5.412;2023-08-30T14:34:21;2.17;;;1.27;;
61911;SDS011;49973;52.084;5.412;2023-08-30T14:36:50;2.10;;;1.50;;
61911;SDS011;49973;52.084;5.412;2023-08-30T14:39:19;1.53;;;1.20;;
61911;SDS011;49973;52.084;5.412;2023-08-30T14:41:48;5.90;;;2.20;;
61911;SDS011;49973;52.084;5.412;2023-08-30T14:44:16;5.80;;;1.50;;
61911;SDS011;49973;52.084;5.412;2023-08-30T14:46:45;4.10;;;1.60;;
61911;SDS011;49973;52.084;5.412;2023-08-30T14:49:14;4.93;;;1.70;;
61911;SDS011;49973;52.084;5.412;2023-08-30T14:51:44;3.00;;;1.43;;
61911;SDS011;49973;52.084;5.412;2023-08-30T14:54:14;3.37;;;1.57;;
61911;SDS011;49973;52.084;5.412;2023-08-30T14:56:42;10.17;;;1.93;;